createdAt,value
2022-11-24T00:00:21.367Z,7.30
2022-11-24T00:02:49.973Z,7.30
2022-11-24T00:05:19.948Z,7.20
2022-11-24T00:07:48.511Z,7.10
2022-11-24T00:10:17.449Z,7.10
2022-11-24T00:12:45.967Z,7.10
2022-11-24T00:15:14.525Z,7.00
2022-11-24T00:17:43.015Z,7.00
2022-11-24T00:20:12.197Z,7.00
2022-11-24T00:22:42.122Z,7.00
2022-11-24T00:25:10.774Z,7.00
2022-11-24T00:27:39.284Z,7.00
2022-11-24T00:30:09.568Z,6.90
2022-11-24T00:32:38.047Z,6.90
2022-11-24T00:35:07.823Z,6.80
2022-11-24T00:37:36.430Z,6.80
2022-11-24T00:40:07.404Z,6.70
2022-11-24T00:42:35.880Z,6.70
2022-11-24T00:45:13.474Z,6.70
2022-11-24T00:47:42.436Z,6.70
2022-11-24T00:50:11.603Z,6.70
2022-11-24T00:52:40.156Z,6.80
2022-11-24T00:55:10.336Z,6.80
2022-11-24T00:57:38.649Z,6.80
2022-11-24T01:00:08.345Z,6.70
2022-11-24T01:02:36.847Z,6.70
2022-11-24T01:05:05.700Z,6.70
2022-11-24T01:07:34.531Z,6.70
2022-11-24T01:10:03.306Z,6.60
2022-11-24T01:12:33.170Z,6.60
2022-11-24T01:15:01.595Z,6.60
2022-11-24T01:17:30.157Z,6.60
2022-11-24T01:19:58.495Z,6.50
2022-11-24T01:22:27.569Z,6.40
2022-11-24T01:24:55.955Z,6.40
2022-11-24T01:27:24.315Z,6.40
2022-11-24T01:29:54.106Z,6.40
2022-11-24T01:32:22.713Z,6.30
2022-11-24T01:34:51.147Z,6.40
2022-11-24T01:37:19.527Z,6.40
2022-11-24T01:39:48.100Z,6.50
2022-11-24T01:42:16.616Z,6.40
2022-11-24T01:44:45.199Z,6.40
2022-11-24T01:47:33.578Z,6.40
2022-11-24T01:50:04.276Z,6.40
2022-11-24T01:52:38.193Z,6.50
2022-11-24T01:55:10.877Z,6.50
2022-11-24T01:57:43.614Z,6.50
2022-11-24T02:00:14.315Z,6.50
2022-11-24T02:02:45.860Z,6.50
2022-11-24T02:05:19.125Z,6.50
2022-11-24T02:07:48.685Z,6.50
2022-11-24T02:10:17.809Z,6.50
2022-11-24T02:12:49.696Z,6.50
2022-11-24T02:15:19.438Z,6.50
2022-11-24T02:17:49.407Z,6.50
2022-11-24T02:20:18.988Z,6.40
2022-11-24T02:22:52.741Z,6.40
2022-11-24T02:25:30.795Z,6.30
2022-11-24T02:28:02.017Z,6.30
2022-11-24T02:30:30.455Z,6.30
2022-11-24T02:32:59.306Z,6.40
2022-11-24T02:35:29.317Z,6.40
2022-11-24T02:37:57.796Z,6.40
2022-11-24T02:40:30.955Z,6.40
2022-11-24T02:43:06.667Z,6.40
2022-11-24T02:45:35.136Z,6.40
2022-11-24T02:48:03.673Z,6.50
2022-11-24T02:50:32.128Z,6.50
2022-11-24T02:53:00.780Z,6.50
2022-11-24T02:55:29.208Z,6.50
2022-11-24T02:57:57.670Z,6.60
2022-11-24T03:00:27.491Z,6.50
2022-11-24T03:02:56.119Z,6.50
2022-11-24T03:05:27.747Z,6.50
2022-11-24T03:07:56.451Z,6.50
2022-11-24T03:10:25.698Z,6.40
2022-11-24T03:12:54.186Z,6.50
2022-11-24T03:15:23.820Z,6.50
2022-11-24T03:17:56.700Z,6.60
2022-11-24T03:20:26.083Z,6.60
2022-11-24T03:22:54.673Z,6.60
2022-11-24T03:25:23.120Z,6.60
2022-11-24T03:27:51.487Z,6.70
2022-11-24T03:30:20.286Z,6.60
2022-11-24T03:32:48.778Z,6.70
2022-11-24T03:35:18.841Z,6.70
2022-11-24T03:37:47.221Z,6.70
2022-11-24T03:40:15.771Z,6.70
2022-11-24T03:42:44.392Z,6.70
2022-11-24T03:48:01.739Z,6.70
2022-11-24T03:50:31.698Z,6.70
2022-11-24T03:53:00.379Z,6.70
2022-11-24T03:55:28.989Z,6.70
2022-11-24T03:57:57.749Z,6.70
2022-11-24T04:00:26.550Z,6.70
2022-11-24T04:02:55.178Z,6.70
2022-11-24T04:05:25.228Z,6.70
2022-11-24T04:07:57.442Z,6.80
2022-11-24T04:10:26.322Z,6.80
2022-11-24T04:12:56.981Z,6.80
2022-11-24T04:15:25.448Z,6.80
2022-11-24T04:17:56.934Z,6.80
2022-11-24T04:20:25.490Z,6.90
2022-11-24T04:22:55.487Z,6.90
2022-11-24T04:25:24.168Z,6.90
2022-11-24T04:27:53.771Z,6.90
2022-11-24T04:30:23.235Z,6.90
2022-11-24T04:32:52.176Z,6.90
2022-11-24T04:35:20.968Z,7.00
2022-11-24T04:37:49.664Z,7.00
2022-11-24T04:40:20.033Z,7.00
2022-11-24T04:42:55.011Z,7.00
2022-11-24T04:45:24.032Z,7.00
2022-11-24T04:47:52.599Z,7.00
2022-11-24T04:50:20.987Z,6.90
2022-11-24T04:52:49.490Z,7.00
2022-11-24T04:55:19.277Z,6.90
2022-11-24T04:57:47.633Z,6.90
2022-11-24T05:00:16.762Z,6.90
2022-11-24T05:02:45.110Z,6.80
2022-11-24T05:05:13.743Z,6.80
2022-11-24T05:07:42.112Z,6.80
2022-11-24T05:10:28.806Z,6.80
2022-11-24T05:13:00.321Z,6.90
2022-11-24T05:15:29.222Z,7.00
2022-11-24T05:17:58.111Z,7.00
2022-11-24T05:20:26.787Z,7.00
2022-11-24T05:22:55.117Z,7.00
2022-11-24T05:25:23.694Z,7.00
2022-11-24T05:27:52.199Z,7.00
2022-11-24T05:30:22.134Z,7.00
2022-11-24T05:32:50.669Z,7.10
2022-11-24T05:35:19.246Z,7.20
2022-11-24T05:37:47.617Z,7.20
2022-11-24T05:40:16.228Z,7.20
2022-11-24T05:42:47.744Z,7.30
2022-11-24T05:45:18.347Z,7.30
2022-11-24T05:47:49.359Z,7.30
2022-11-24T05:50:20.148Z,7.30
2022-11-24T05:52:48.649Z,7.30
2022-11-24T05:55:19.520Z,7.30
2022-11-24T05:57:48.189Z,7.30
2022-11-24T06:00:20.165Z,7.30
2022-11-24T06:02:50.302Z,7.30
2022-11-24T06:05:18.887Z,7.30
2022-11-24T06:07:47.387Z,7.30
2022-11-24T06:10:16.728Z,7.40
2022-11-24T06:12:45.161Z,7.40
2022-11-24T06:15:14.066Z,7.40
2022-11-24T06:17:42.637Z,7.40
2022-11-24T06:20:13.252Z,7.50
2022-11-24T06:22:41.639Z,7.50
2022-11-24T06:25:10.808Z,7.50
2022-11-24T06:27:39.340Z,7.50
2022-11-24T06:30:08.706Z,7.50
2022-11-24T06:32:40.787Z,7.60
2022-11-24T06:35:12.036Z,7.60
2022-11-24T06:37:40.417Z,7.70
2022-11-24T06:40:10.252Z,7.70
2022-11-24T06:42:39.218Z,7.80
2022-11-24T06:45:10.239Z,7.80
2022-11-24T06:47:38.612Z,7.90
2022-11-24T06:50:08.299Z,7.90
2022-11-24T06:52:37.991Z,7.90
2022-11-24T06:55:07.296Z,7.90
2022-11-24T06:57:35.720Z,7.90
2022-11-24T07:00:04.843Z,8.00
2022-11-24T07:02:33.244Z,7.90
2022-11-24T07:05:01.771Z,8.00
2022-11-24T07:07:30.252Z,8.00
2022-11-24T07:09:59.928Z,8.10
2022-11-24T07:12:29.421Z,8.10
2022-11-24T07:14:58.108Z,8.10
2022-11-24T07:17:26.508Z,8.10
2022-11-24T07:19:55.077Z,8.00
2022-11-24T07:22:23.451Z,8.00
2022-11-24T07:24:52.001Z,8.00
2022-11-24T07:27:21.825Z,7.90
2022-11-24T07:29:50.290Z,7.90
2022-11-24T07:32:18.733Z,7.90
2022-11-24T07:34:47.258Z,7.90
2022-11-24T07:37:15.643Z,7.80
2022-11-24T07:39:43.955Z,7.80
2022-11-24T07:42:12.529Z,7.80
2022-11-24T07:44:42.516Z,7.80
2022-11-24T07:47:11.019Z,7.80
2022-11-24T07:49:39.734Z,7.70
2022-11-24T07:52:09.576Z,7.70
2022-11-24T07:54:38.067Z,7.70
2022-11-24T07:57:06.557Z,7.70
2022-11-24T07:59:35.074Z,7.70
2022-11-24T08:02:05.079Z,7.80
2022-11-24T08:04:33.882Z,7.80
2022-11-24T08:07:03.913Z,8.00
2022-11-24T08:09:32.328Z,8.00
2022-11-24T08:12:00.799Z,8.10
2022-11-24T08:14:29.201Z,8.10
2022-11-24T08:16:58.582Z,8.10
2022-11-24T08:19:28.376Z,8.20
2022-11-24T08:21:56.776Z,8.50
2022-11-24T08:24:25.187Z,8.60
2022-11-24T08:26:53.555Z,8.70
2022-11-24T08:29:21.877Z,9.00
2022-11-24T08:31:50.501Z,9.30
2022-11-24T08:34:19.075Z,9.60
2022-11-24T08:36:48.648Z,9.80
2022-11-24T08:39:17.018Z,10.10
2022-11-24T08:41:45.421Z,10.40
2022-11-24T08:44:15.917Z,10.30
2022-11-24T08:46:44.275Z,10.10
2022-11-24T08:49:14.217Z,9.90
2022-11-24T08:51:43.494Z,9.80
2022-11-24T08:54:15.419Z,9.70
2022-11-24T08:56:43.784Z,9.60
2022-11-24T08:59:14.277Z,9.50
2022-11-24T09:01:43.134Z,9.40
2022-11-24T09:04:11.566Z,9.40
2022-11-24T09:06:39.908Z,9.30
2022-11-24T09:09:08.147Z,9.20
2022-11-24T09:11:38.103Z,9.20
2022-11-24T09:14:06.626Z,9.10
2022-11-24T09:16:34.942Z,9.20
2022-11-24T09:19:05.109Z,9.20
2022-11-24T09:21:37.778Z,9.20
2022-11-24T09:24:07.560Z,9.20
2022-11-24T09:26:43.097Z,9.20
2022-11-24T09:29:13.804Z,9.20
2022-11-24T09:31:42.202Z,9.20
2022-11-24T09:34:14.375Z,9.20
2022-11-24T09:36:42.956Z,9.20
2022-11-24T09:39:11.567Z,9.20
2022-11-24T09:41:59.049Z,9.20
2022-11-24T09:44:59.736Z,9.20
2022-11-24T09:47:39.625Z,9.10
2022-11-24T09:50:14.759Z,9.10
2022-11-24T09:52:48.808Z,9.10
2022-11-24T09:55:32.765Z,9.10
2022-11-24T09:58:13.433Z,9.10
2022-11-24T10:00:43.262Z,9.10
2022-11-24T10:03:18.225Z,9.10
2022-11-24T10:05:49.585Z,9.10
2022-11-24T10:08:34.068Z,9.10
2022-11-24T10:11:07.668Z,9.10
2022-11-24T10:14:00.726Z,9.10
2022-11-24T10:16:40.454Z,9.10
2022-11-24T10:19:18.529Z,9.10
2022-11-24T10:22:00.114Z,9.10
2022-11-24T10:25:00.736Z,9.10
2022-11-24T10:27:35.837Z,9.00
2022-11-24T10:30:15.656Z,9.10
2022-11-24T10:32:47.613Z,9.00
2022-11-24T10:35:19.745Z,9.10
2022-11-24T10:37:57.559Z,9.10
2022-11-24T10:40:56.503Z,9.10
2022-11-24T10:43:28.208Z,9.10
2022-11-24T10:46:06.760Z,9.10
2022-11-24T10:48:41.804Z,9.10
2022-11-24T10:51:34.027Z,9.00
2022-11-24T10:54:07.055Z,9.10
2022-11-24T10:56:41.477Z,9.00
2022-11-24T10:59:34.174Z,9.10
2022-11-24T11:02:05.359Z,9.10
2022-11-24T11:04:35.345Z,9.10
2022-11-24T11:07:19.431Z,9.10
2022-11-24T11:09:48.858Z,9.10
2022-11-24T11:12:43.307Z,9.10
2022-11-24T11:15:27.538Z,9.10
2022-11-24T11:18:01.176Z,9.10
2022-11-24T11:20:32.483Z,9.00
2022-11-24T11:23:03.288Z,9.00
2022-11-24T11:25:34.939Z,8.90
2022-11-24T11:28:26.174Z,8.90
2022-11-24T11:31:19.953Z,8.90
2022-11-24T11:34:23.200Z,8.90
2022-11-24T11:36:56.186Z,8.90
2022-11-24T11:39:30.160Z,8.90
2022-11-24T11:42:09.176Z,8.90
2022-11-24T11:44:41.840Z,9.00
2022-11-24T11:47:18.748Z,9.10
2022-11-24T11:49:49.831Z,9.10
2022-11-24T11:52:47.497Z,9.20
2022-11-24T11:55:38.225Z,9.20
2022-11-24T11:58:32.286Z,9.20
2022-11-24T12:01:08.777Z,9.20
2022-11-24T12:03:52.178Z,9.20
2022-11-24T12:06:38.257Z,9.20
2022-11-24T12:09:20.940Z,9.20
2022-11-24T12:12:01.178Z,9.20
2022-11-24T12:14:39.461Z,9.20
2022-11-24T12:17:16.069Z,9.20
2022-11-24T12:19:59.661Z,9.20
2022-11-24T12:22:42.896Z,9.20
2022-11-24T12:25:23.616Z,9.20
2022-11-24T12:28:15.574Z,9.20
2022-11-24T12:30:54.883Z,9.10
2022-11-24T12:33:50.317Z,9.10
2022-11-24T12:36:37.595Z,9.10
2022-11-24T12:39:22.383Z,9.00
2022-11-24T12:42:02.880Z,9.00
2022-11-24T12:45:02.971Z,9.00
2022-11-24T12:47:43.192Z,9.00
2022-11-24T12:50:14.849Z,9.00
2022-11-24T12:52:52.875Z,9.00
2022-11-24T12:55:26.248Z,9.00
2022-11-24T12:58:00.698Z,9.10
2022-11-24T13:00:35.781Z,9.10
2022-11-24T13:03:18.886Z,9.20
2022-11-24T13:05:54.654Z,9.20
2022-11-24T13:08:24.147Z,9.30
2022-11-24T13:10:57.071Z,9.30
2022-11-24T13:13:31.421Z,9.40
2022-11-24T13:17:05.758Z,9.40
2022-11-24T13:19:08.228Z,9.40
2022-11-24T13:21:50.947Z,9.40
2022-11-24T13:24:30.813Z,9.40
2022-11-24T13:27:29.982Z,9.50
2022-11-24T13:29:58.515Z,9.50
2022-11-24T13:33:03.750Z,9.50
2022-11-24T13:35:32.293Z,9.50
2022-11-24T13:38:00.556Z,9.60
2022-11-24T13:40:54.633Z,9.70
2022-11-24T13:43:37.624Z,9.80
2022-11-24T13:46:06.206Z,9.90
2022-11-24T13:48:54.195Z,9.80
2022-11-24T13:51:26.306Z,9.80
2022-11-24T13:53:57.866Z,9.70
2022-11-24T13:56:32.558Z,9.70
2022-11-24T13:59:16.807Z,9.60
2022-11-24T14:01:47.021Z,9.50
2022-11-24T14:04:36.279Z,9.50
2022-11-24T14:07:09.024Z,9.40
2022-11-24T14:09:44.204Z,9.40
2022-11-24T14:12:16.277Z,9.40
2022-11-24T14:14:47.412Z,9.40
2022-11-24T14:17:23.167Z,9.40
2022-11-24T14:19:53.469Z,9.40
2022-11-24T14:22:24.473Z,9.40
2022-11-24T14:24:58.197Z,9.40
2022-11-24T14:27:32.278Z,9.50
2022-11-24T14:30:03.942Z,9.50
2022-11-24T14:32:32.329Z,9.50
2022-11-24T14:35:00.960Z,9.50
2022-11-24T14:37:29.564Z,9.40
2022-11-24T14:39:58.061Z,9.40
2022-11-24T14:42:28.361Z,9.30
2022-11-24T14:44:59.517Z,9.30
2022-11-24T14:47:32.448Z,9.30
2022-11-24T14:50:10.666Z,9.30
2022-11-24T14:52:46.624Z,9.30
2022-11-24T14:55:31.598Z,9.30
2022-11-24T14:58:00.560Z,9.30
2022-11-24T15:00:31.535Z,9.20
2022-11-24T15:03:17.212Z,9.20
2022-11-24T15:05:54.633Z,9.20
2022-11-24T15:08:23.974Z,9.20
2022-11-24T15:10:59.358Z,9.20
2022-11-24T15:13:28.154Z,9.10
2022-11-24T15:16:02.982Z,9.10
2022-11-24T15:18:40.978Z,9.10
2022-11-24T15:21:14.153Z,9.00
2022-11-24T15:24:06.494Z,9.00
2022-11-24T15:26:41.341Z,9.00
2022-11-24T15:29:11.196Z,9.00
2022-11-24T15:31:39.878Z,9.00
2022-11-24T15:34:14.800Z,8.90
2022-11-24T15:36:43.652Z,8.90
2022-11-24T15:39:12.286Z,8.90
2022-11-24T15:41:43.016Z,8.90
2022-11-24T15:44:11.999Z,9.00
2022-11-24T15:46:40.639Z,8.90
2022-11-24T15:49:10.636Z,8.90
2022-11-24T15:51:43.125Z,8.90
2022-11-24T15:54:14.977Z,8.80
2022-11-24T15:56:44.576Z,8.70
2022-11-24T15:59:20.354Z,8.60
2022-11-24T16:01:49.879Z,8.60
2022-11-24T16:04:19.807Z,8.50
2022-11-24T16:06:48.219Z,8.40
2022-11-24T16:09:18.250Z,8.30
2022-11-24T16:11:46.666Z,8.20
2022-11-24T16:14:15.029Z,8.10
2022-11-24T16:16:43.579Z,8.00
2022-11-24T16:19:12.413Z,7.90
2022-11-24T16:21:42.156Z,7.80
2022-11-24T16:24:10.714Z,7.80
2022-11-24T16:26:39.216Z,7.70
2022-11-24T16:29:07.666Z,7.60
2022-11-24T16:31:36.341Z,7.50
2022-11-24T16:34:04.605Z,7.40
2022-11-24T16:36:33.209Z,7.30
2022-11-24T16:39:03.037Z,7.20
2022-11-24T16:41:31.278Z,7.20
2022-11-24T16:43:59.796Z,7.20
2022-11-24T16:46:29.059Z,7.20
2022-11-24T16:49:01.305Z,7.20
2022-11-24T16:51:34.670Z,7.20
2022-11-24T16:54:06.256Z,7.20
2022-11-24T16:56:34.787Z,7.20
2022-11-24T16:59:03.416Z,7.10
2022-11-24T17:01:33.004Z,7.20
2022-11-24T17:04:01.740Z,7.10
2022-11-24T17:06:30.927Z,7.00
2022-11-24T17:08:59.529Z,6.90
2022-11-24T17:11:30.188Z,6.80
2022-11-24T17:13:59.508Z,6.70
2022-11-24T17:16:29.543Z,6.60
2022-11-24T17:18:58.957Z,6.50
2022-11-24T17:21:28.625Z,6.50
2022-11-24T17:23:58.355Z,6.30
2022-11-24T17:26:28.856Z,6.30
2022-11-24T17:28:58.369Z,6.20
2022-11-24T17:31:32.154Z,6.10
2022-11-24T17:34:01.954Z,6.00
2022-11-24T17:36:32.511Z,6.00
2022-11-24T17:39:01.468Z,5.90
2022-11-24T17:41:31.647Z,5.80
2022-11-24T17:44:00.271Z,5.80
2022-11-24T17:46:30.476Z,5.70
2022-11-24T17:48:59.070Z,5.60
2022-11-24T17:51:28.495Z,5.60
2022-11-24T17:53:57.987Z,5.50
2022-11-24T17:56:27.945Z,5.40
2022-11-24T17:58:59.891Z,5.40
2022-11-24T18:01:31.796Z,5.30
2022-11-24T18:04:00.736Z,5.20
2022-11-24T18:06:29.761Z,5.10
2022-11-24T18:08:59.809Z,5.00
2022-11-24T18:11:31.867Z,5.00
2022-11-24T18:14:04.343Z,4.90
2022-11-24T18:16:35.318Z,4.90
2022-11-24T18:19:10.684Z,4.80
2022-11-24T18:21:41.163Z,4.70
2022-11-24T18:24:10.569Z,4.70
2022-11-24T18:26:39.191Z,4.60
2022-11-24T18:29:10.436Z,4.50
2022-11-24T18:31:39.554Z,4.50
2022-11-24T18:34:08.828Z,4.50
2022-11-24T18:36:37.755Z,4.40
2022-11-24T18:39:09.159Z,4.40
2022-11-24T18:41:38.007Z,4.30
2022-11-24T18:44:08.722Z,4.30
2022-11-24T18:46:39.788Z,4.20
2022-11-24T18:49:08.420Z,4.20
2022-11-24T18:51:36.825Z,4.10
2022-11-24T18:54:05.944Z,4.10
2022-11-24T18:56:34.435Z,4.10
2022-11-24T18:59:02.932Z,4.00
2022-11-24T19:01:32.429Z,4.00
2022-11-24T19:04:03.510Z,4.00
2022-11-24T19:06:33.745Z,4.00
2022-11-24T19:09:04.558Z,4.00
2022-11-24T19:11:35.579Z,3.90
2022-11-24T19:14:04.798Z,3.90
2022-11-24T19:16:33.849Z,3.90
2022-11-24T19:19:03.917Z,3.90
2022-11-24T19:21:34.689Z,3.90
2022-11-24T19:24:05.675Z,3.80
2022-11-24T19:26:36.078Z,3.80
2022-11-24T19:29:05.696Z,3.90
2022-11-24T19:31:35.047Z,3.90
2022-11-24T19:34:06.104Z,4.00
2022-11-24T19:36:34.835Z,4.10
2022-11-24T19:39:05.198Z,4.10
2022-11-24T19:41:34.744Z,4.30
2022-11-24T19:44:03.450Z,4.30
2022-11-24T19:46:32.116Z,4.40
2022-11-24T19:49:02.235Z,4.50
2022-11-24T19:51:34.033Z,4.60
2022-11-24T19:54:03.076Z,4.60
2022-11-24T19:56:34.192Z,4.70
2022-11-24T19:59:03.015Z,4.80
2022-11-24T20:01:33.713Z,4.90
2022-11-24T20:04:05.345Z,5.00
2022-11-24T20:06:37.588Z,5.20
2022-11-24T20:09:09.029Z,5.20
2022-11-24T20:11:38.312Z,5.30
2022-11-24T20:14:07.871Z,5.40
2022-11-24T20:16:36.950Z,5.60
2022-11-24T20:19:07.618Z,5.60
2022-11-24T20:21:39.315Z,5.70
2022-11-24T20:24:11.319Z,5.70
2022-11-24T20:26:42.426Z,5.80
2022-11-24T20:29:13.153Z,5.80
2022-11-24T20:31:43.654Z,5.80
2022-11-24T20:34:12.601Z,5.80
2022-11-24T20:36:45.177Z,5.80
2022-11-24T20:39:17.041Z,5.90
2022-11-24T20:41:46.215Z,5.90
2022-11-24T20:44:16.867Z,5.90
2022-11-24T20:46:46.725Z,5.90
2022-11-24T20:49:22.039Z,5.80
2022-11-24T20:51:54.604Z,5.80
2022-11-24T20:54:23.625Z,5.80
2022-11-24T20:56:53.085Z,5.80
2022-11-24T20:59:23.514Z,5.70
2022-11-24T21:01:55.255Z,5.70
2022-11-24T21:04:26.375Z,5.80
2022-11-24T21:06:56.276Z,5.90
2022-11-24T21:09:24.945Z,5.90
2022-11-24T21:11:54.696Z,5.90
2022-11-24T21:14:24.489Z,5.90
2022-11-24T21:16:53.022Z,5.90
2022-11-24T21:19:21.506Z,5.90
2022-11-24T21:21:50.175Z,5.80
2022-11-24T21:24:22.578Z,5.80
2022-11-24T21:26:52.886Z,5.80
2022-11-24T21:29:23.663Z,5.80
2022-11-24T21:31:52.645Z,5.80
2022-11-24T21:34:21.149Z,5.80
2022-11-24T21:36:49.630Z,5.80
2022-11-24T21:39:19.519Z,5.80
2022-11-24T21:41:48.315Z,5.70
2022-11-24T21:44:16.954Z,5.70
2022-11-24T21:46:51.055Z,5.60
2022-11-24T21:49:22.756Z,5.60
2022-11-24T21:51:55.659Z,5.60
2022-11-24T21:54:25.836Z,5.50
2022-11-24T21:56:55.553Z,5.40
2022-11-24T21:59:23.978Z,5.50
2022-11-24T22:01:52.561Z,5.50
2022-11-24T22:04:21.305Z,5.50
2022-11-24T22:06:49.796Z,5.40
2022-11-24T22:09:18.764Z,5.40
2022-11-24T22:11:49.691Z,5.30
2022-11-24T22:14:18.055Z,5.30
2022-11-24T22:16:47.252Z,5.20
2022-11-24T22:19:15.965Z,5.20
2022-11-24T22:21:44.436Z,5.20
2022-11-24T22:24:13.057Z,5.10
2022-11-24T22:26:41.594Z,5.00
2022-11-24T22:29:11.817Z,4.90
2022-11-24T22:31:40.424Z,4.80
2022-11-24T22:34:08.877Z,4.70
2022-11-24T22:36:37.858Z,4.60
2022-11-24T22:39:07.547Z,4.50
2022-11-24T22:41:36.895Z,4.40
2022-11-24T22:44:06.030Z,4.30
2022-11-24T22:46:35.817Z,4.20
2022-11-24T22:49:04.466Z,4.10
2022-11-24T22:51:34.682Z,4.00
2022-11-24T22:54:05.643Z,3.90
2022-11-24T22:56:34.277Z,3.80
2022-11-24T22:59:04.692Z,3.80
2022-11-24T23:01:35.646Z,3.70
2022-11-24T23:04:04.424Z,3.60
2022-11-24T23:06:34.513Z,3.60
2022-11-24T23:09:03.962Z,3.60
2022-11-24T23:11:37.667Z,3.60
2022-11-24T23:14:07.677Z,3.70
2022-11-24T23:16:37.776Z,3.70
2022-11-24T23:19:06.441Z,3.80
2022-11-24T23:21:38.314Z,3.90
2022-11-24T23:24:07.926Z,4.00
2022-11-24T23:26:37.910Z,4.10
2022-11-24T23:29:06.897Z,4.10
2022-11-24T23:31:39.830Z,4.20
2022-11-24T23:34:08.849Z,4.20
2022-11-24T23:36:37.305Z,4.30
2022-11-24T23:39:08.680Z,4.30
2022-11-24T23:41:37.112Z,4.20
2022-11-24T23:44:06.164Z,4.10
2022-11-24T23:46:34.946Z,4.00
2022-11-24T23:49:04.856Z,3.90
2022-11-24T23:51:35.045Z,3.80
2022-11-24T23:54:04.208Z,3.80
2022-11-24T23:56:33.665Z,3.70
2022-11-24T23:59:02.897Z,3.60
